sensor_id;sensor_type;location;lat;lon;timestamp;P1;durP1;ratioP1;P2;durP2;ratioP2
21569;SDS011;57598;50.888;4.746;2023-02-15T06:11:33;62.45;;;57.97;;
21569;SDS011;57598;50.888;4.746;2023-02-15T06:14:01;63.97;;;59.63;;
21569;SDS011;57598;50.888;4.746;2023-02-15T06:16:30;66.10;;;61.60;;
21569;SDS011;57598;50.888;4.746;2023-02-15T06:18:59;65.63;;;60.67;;
21569;SDS011;57598;50.888;4.746;2023-02-15T06:21:29;79.28;;;72.35;;
21569;SDS011;57598;50.888;4.746;2023-02-15T06:23:58;66.60;;;61.50;;
21569;SDS011;57598;50.888;4.746;2023-02-15T06:26:29;64.05;;;59.67;;
21569;SDS011;57598;50.888;4.746;2023-02-15T06:29:01;67.22;;;62.38;;
21569;SDS011;57598;50.888;4.746;2023-02-15T06:33:58;64.80;;;60.35;;
21569;SDS011;57598;50.888;4.746;2023-02-15T06:36:31;63.67;;;59.42;;
21569;SDS011;57598;50.888;4.746;2023-02-15T06:39:01;62.40;;;58.15;;
21569;SDS011;57598;50.888;4.746;2023-02-15T06:41:32;64.15;;;59.58;;
21569;SDS011;57598;50.888;4.746;2023-02-15T06:44:01;61.65;;;57.45;;
21569;SDS011;57598;50.888;4.746;2023-02-15T06:46:29;69.30;;;63.45;;
21569;SDS011;57598;50.888;4.746;2023-02-15T06:49:06;60.10;;;55.90;;
21569;SDS011;57598;50.888;4.746;2023-02-15T06:51:33;62.85;;;58.53;;
21569;SDS011;57598;50.888;4.746;2023-02-15T06:54:01;63.92;;;59.58;;
21569;SDS011;57598;50.888;4.746;2023-02-15T06:56:31;65.93;;;61.53;;
21569;SDS011;57598;50.888;4.746;2023-02-15T06:59:04;62.30;;;57.95;;
21569;SDS011;57598;50.888;4.746;2023-02-15T07:01:33;60.63;;;56.83;;
21569;SDS011;57598;50.888;4.746;2023-02-15T07:04:03;66.93;;;62.20;;
21569;SDS011;57598;50.888;4.746;2023-02-15T07:06:30;67.38;;;62.72;;
21569;SDS011;57598;50.888;4.746;2023-02-15T07:08:59;62.35;;;58.30;;
21569;SDS011;57598;50.888;4.746;2023-02-15T07:11:31;63.75;;;59.47;;
21569;SDS011;57598;50.888;4.746;2023-02-15T07:17:23;58.47;;;54.78;;
21569;SDS011;57598;50.888;4.746;2023-02-15T07:19:59;57.38;;;53.78;;
21569;SDS011;57598;50.888;4.746;2023-02-15T07:22:29;61.28;;;57.38;;
21569;SDS011;57598;50.888;4.746;2023-02-15T07:25:02;58.60;;;54.90;;
21569;SDS011;57598;50.888;4.746;2023-02-15T07:27:41;55.90;;;52.40;;
21569;SDS011;57598;50.888;4.746;2023-02-15T07:30:12;56.97;;;53.10;;
21569;SDS011;57598;50.888;4.746;2023-02-15T07:32:52;57.67;;;53.97;;
21569;SDS011;57598;50.888;4.746;2023-02-15T07:35:47;54.38;;;51.00;;
21569;SDS011;57598;50.888;4.746;2023-02-15T07:38:18;53.60;;;50.38;;
21569;SDS011;57598;50.888;4.746;2023-02-15T07:41:09;55.83;;;52.03;;
21569;SDS011;57598;50.888;4.746;2023-02-15T07:43:49;56.30;;;52.53;;
21569;SDS011;57598;50.888;4.746;2023-02-15T07:46:41;54.95;;;51.72;;
21569;SDS011;57598;50.888;4.746;2023-02-15T07:52:33;52.97;;;49.85;;
21569;SDS011;57598;50.888;4.746;2023-02-15T07:58:07;52.28;;;48.67;;
21569;SDS011;57598;50.888;4.746;2023-02-15T08:00:58;52.25;;;49.03;;
21569;SDS011;57598;50.888;4.746;2023-02-15T09:22:34;25.23;;;23.20;;
21569;SDS011;57598;50.888;4.746;2023-02-15T09:25:02;26.00;;;23.73;;
21569;SDS011;57598;50.888;4.746;2023-02-15T09:27:29;27.40;;;25.20;;
21569;SDS011;57598;50.888;4.746;2023-02-15T09:29:56;22.75;;;21.45;;
21569;SDS011;57598;50.888;4.746;2023-02-15T09:32:24;24.23;;;22.13;;
21569;SDS011;57598;50.888;4.746;2023-02-15T09:34:51;27.98;;;25.60;;
21569;SDS011;57598;50.888;4.746;2023-02-15T09:37:18;25.80;;;23.70;;
21569;SDS011;57598;50.888;4.746;2023-02-15T09:39:47;23.63;;;22.08;;
21569;SDS011;57598;50.888;4.746;2023-02-15T09:45:03;24.75;;;22.98;;
21569;SDS011;57598;50.888;4.746;2023-02-15T09:47:49;23.00;;;21.48;;
21569;SDS011;57598;50.888;4.746;2023-02-15T09:50:20;26.00;;;24.30;;
21569;SDS011;57598;50.888;4.746;2023-02-15T09:52:53;23.65;;;22.10;;
21569;SDS011;57598;50.888;4.746;2023-02-15T09:55:28;31.10;;;28.55;;
21569;SDS011;57598;50.888;4.746;2023-02-15T09:58:04;24.25;;;21.95;;
21569;SDS011;57598;50.888;4.746;2023-02-15T10:00:35;28.85;;;25.88;;
21569;SDS011;57598;50.888;4.746;2023-02-15T10:03:11;21.20;;;20.00;;
21569;SDS011;57598;50.888;4.746;2023-02-15T10:05:43;24.75;;;23.10;;
21569;SDS011;57598;50.888;4.746;2023-02-15T10:08:20;24.20;;;22.50;;
21569;SDS011;57598;50.888;4.746;2023-02-15T10:10:53;21.88;;;20.58;;
21569;SDS011;57598;50.888;4.746;2023-02-15T10:13:24;23.73;;;22.25;;
21569;SDS011;57598;50.888;4.746;2023-02-15T10:15:57;23.63;;;22.23;;
21569;SDS011;57598;50.888;4.746;2023-02-15T10:18:35;22.55;;;21.25;;
21569;SDS011;57598;50.888;4.746;2023-02-15T10:21:04;23.45;;;21.98;;
21569;SDS011;57598;50.888;4.746;2023-02-15T10:23:41;31.55;;;28.73;;
21569;SDS011;57598;50.888;4.746;2023-02-15T10:26:16;23.60;;;21.85;;
21569;SDS011;57598;50.888;4.746;2023-02-15T10:28:45;32.15;;;27.00;;
21569;SDS011;57598;50.888;4.746;2023-02-15T10:31:16;25.80;;;23.77;;
21569;SDS011;57598;50.888;4.746;2023-02-15T10:33:47;27.10;;;24.70;;
21569;SDS011;57598;50.888;4.746;2023-02-15T10:36:21;24.98;;;23.15;;
21569;SDS011;57598;50.888;4.746;2023-02-15T10:38:52;24.08;;;21.90;;
21569;SDS011;57598;50.888;4.746;2023-02-15T10:41:27;21.05;;;19.73;;
21569;SDS011;57598;50.888;4.746;2023-02-15T10:44:08;23.35;;;21.83;;
21569;SDS011;57598;50.888;4.746;2023-02-15T10:46:46;39.45;;;23.30;;
21569;SDS011;57598;50.888;4.746;2023-02-15T10:49:24;23.02;;;21.17;;
21569;SDS011;57598;50.888;4.746;2023-02-15T10:51:56;23.73;;;21.73;;
21569;SDS011;57598;50.888;4.746;2023-02-15T10:54:27;28.58;;;25.63;;
21569;SDS011;57598;50.888;4.746;2023-02-15T10:56:59;24.88;;;22.90;;
21569;SDS011;57598;50.888;4.746;2023-02-15T10:59:37;25.23;;;23.35;;
21569;SDS011;57598;50.888;4.746;2023-02-15T11:02:10;22.33;;;20.98;;
21569;SDS011;57598;50.888;4.746;2023-02-15T11:04:41;24.25;;;22.40;;
21569;SDS011;57598;50.888;4.746;2023-02-15T11:07:14;28.42;;;25.80;;
21569;SDS011;57598;50.888;4.746;2023-02-15T11:09:43;24.95;;;23.17;;
21569;SDS011;57598;50.888;4.746;2023-02-15T11:12:13;32.20;;;29.17;;
21569;SDS011;57598;50.888;4.746;2023-02-15T11:14:43;26.08;;;23.40;;
21569;SDS011;57598;50.888;4.746;2023-02-15T11:17:14;26.52;;;23.95;;
21569;SDS011;57598;50.888;4.746;2023-02-15T11:19:53;23.10;;;21.50;;
21569;SDS011;57598;50.888;4.746;2023-02-15T11:22:21;22.77;;;21.42;;
21569;SDS011;57598;50.888;4.746;2023-02-15T11:24:48;26.10;;;23.90;;
21569;SDS011;57598;50.888;4.746;2023-02-15T11:27:18;22.58;;;21.02;;
21569;SDS011;57598;50.888;4.746;2023-02-15T11:29:50;24.17;;;22.60;;
21569;SDS011;57598;50.888;4.746;2023-02-15T11:32:21;31.23;;;28.35;;
21569;SDS011;57598;50.888;4.746;2023-02-15T11:34:50;24.90;;;23.13;;
21569;SDS011;57598;50.888;4.746;2023-02-15T11:37:19;23.08;;;21.33;;
21569;SDS011;57598;50.888;4.746;2023-02-15T11:39:47;22.45;;;21.02;;
21569;SDS011;57598;50.888;4.746;2023-02-15T11:42:19;22.42;;;20.95;;
21569;SDS011;57598;50.888;4.746;2023-02-15T11:44:49;23.60;;;21.87;;
21569;SDS011;57598;50.888;4.746;2023-02-15T11:47:19;23.77;;;22.17;;
21569;SDS011;57598;50.888;4.746;2023-02-15T11:49:46;23.83;;;21.77;;
21569;SDS011;57598;50.888;4.746;2023-02-15T11:52:15;22.60;;;20.90;;
21569;SDS011;57598;50.888;4.746;2023-02-15T11:54:44;68.13;;;28.02;;
21569;SDS011;57598;50.888;4.746;2023-02-15T11:57:13;24.08;;;22.23;;
21569;SDS011;57598;50.888;4.746;2023-02-15T11:59:43;24.50;;;22.48;;
21569;SDS011;57598;50.888;4.746;2023-02-15T12:02:15;22.65;;;21.25;;
21569;SDS011;57598;50.888;4.746;2023-02-15T12:04:43;28.30;;;25.52;;
21569;SDS011;57598;50.888;4.746;2023-02-15T12:07:15;24.90;;;22.70;;
21569;SDS011;57598;50.888;4.746;2023-02-15T12:09:48;34.80;;;25.00;;
21569;SDS011;57598;50.888;4.746;2023-02-15T12:12:19;25.65;;;23.75;;
21569;SDS011;57598;50.888;4.746;2023-02-15T12:14:49;22.98;;;21.15;;
21569;SDS011;57598;50.888;4.746;2023-02-15T12:17:17;22.70;;;21.27;;
21569;SDS011;57598;50.888;4.746;2023-02-15T12:19:44;22.48;;;20.85;;
21569;SDS011;57598;50.888;4.746;2023-02-15T12:22:20;23.00;;;21.33;;
21569;SDS011;57598;50.888;4.746;2023-02-15T12:24:49;21.23;;;19.90;;
21569;SDS011;57598;50.888;4.746;2023-02-15T12:27:18;26.10;;;24.25;;
21569;SDS011;57598;50.888;4.746;2023-02-15T12:29:48;20.27;;;19.17;;
21569;SDS011;57598;50.888;4.746;2023-02-15T12:32:17;21.45;;;20.15;;
21569;SDS011;57598;50.888;4.746;2023-02-15T12:34:45;21.70;;;20.15;;
21569;SDS011;57598;50.888;4.746;2023-02-15T12:37:15;28.48;;;25.58;;
21569;SDS011;57598;50.888;4.746;2023-02-15T12:42:40;23.90;;;21.73;;
21569;SDS011;57598;50.888;4.746;2023-02-15T12:45:21;21.80;;;20.25;;
21569;SDS011;57598;50.888;4.746;2023-02-15T12:51:26;24.73;;;22.90;;
21569;SDS011;57598;50.888;4.746;2023-02-15T12:57:24;30.63;;;27.50;;
